Terminal Aerodrome Forecast
Issued by NWS

Home | Current Version | Previous Version | Text Only | Print | Product List | Glossary On
Versions: 1 2 3 4 5 6 7 8 9 10 11 12
000
FTUS43 KGRB 021131
TAFATW
TAF
KATW 021131Z 0212/0312 VRB03KT P6SM FEW200
     FM021600 16009KT P6SM FEW200
     FM030100 15005KT P6SM SCT200=

USA.gov is the U.S. government's official web portal to all federal, state and local government web resources and services.